createdAt,value
2023-08-17T00:01:06.935Z,19.07
2023-08-17T00:03:43.396Z,19.03
2023-08-17T00:06:15.669Z,19.03
2023-08-17T00:09:34.097Z,19.09
2023-08-17T00:12:00.463Z,19.09
2023-08-17T00:14:26.892Z,18.82
2023-08-17T00:16:53.781Z,18.90
2023-08-17T00:19:42.364Z,19.11
2023-08-17T00:25:45.056Z,18.67
2023-08-17T00:28:11.603Z,18.71
2023-08-17T00:30:38.875Z,18.64
2023-08-17T00:37:07.880Z,18.62
2023-08-17T00:40:05.377Z,18.56
2023-08-17T00:51:58.324Z,18.50
2023-08-17T00:57:57.014Z,18.48
2023-08-17T01:00:41.997Z,18.68
2023-08-17T01:03:11.456Z,18.64
2023-08-17T01:05:38.650Z,18.67
2023-08-17T01:08:05.405Z,18.69
2023-08-17T01:11:08.111Z,18.73
2023-08-17T01:13:58.965Z,18.72
2023-08-17T01:16:34.231Z,18.57
2023-08-17T01:19:02.293Z,18.59
2023-08-17T01:21:44.703Z,18.53
2023-08-17T01:24:15.217Z,18.64
2023-08-17T01:27:04.143Z,18.41
2023-08-17T01:29:42.581Z,18.71
2023-08-17T01:35:45.238Z,18.68
2023-08-17T01:38:17.480Z,18.62
2023-08-17T01:40:45.936Z,18.57
2023-08-17T01:43:13.410Z,18.67
2023-08-17T01:45:39.838Z,18.24
2023-08-17T01:48:21.076Z,18.36
2023-08-17T01:51:05.102Z,18.40
2023-08-17T01:53:31.536Z,18.28
2023-08-17T01:56:01.182Z,18.51
2023-08-17T01:58:35.496Z,18.56
2023-08-17T02:01:02.071Z,18.44
2023-08-17T02:03:40.401Z,18.56
2023-08-17T02:07:25.810Z,18.07
2023-08-17T02:10:00.725Z,18.39
2023-08-17T02:12:31.587Z,18.49
2023-08-17T02:15:53.859Z,18.54
2023-08-17T02:18:51.219Z,18.51
2023-08-17T02:21:17.835Z,18.49
2023-08-17T02:23:44.632Z,17.94
2023-08-17T02:32:37.711Z,18.21
2023-08-17T02:35:40.879Z,18.23
2023-08-17T02:38:50.328Z,18.10
2023-08-17T02:41:40.312Z,17.98
2023-08-17T02:44:17.863Z,18.21
2023-08-17T02:46:44.311Z,18.32
2023-08-17T02:49:10.913Z,18.26
2023-08-17T02:51:44.155Z,18.24
2023-08-17T02:54:12.898Z,18.08
2023-08-17T02:56:39.418Z,18.25
2023-08-17T02:59:05.852Z,18.12
2023-08-17T03:01:35.185Z,18.41
2023-08-17T03:04:01.738Z,18.46
2023-08-17T03:06:29.441Z,18.44
2023-08-17T03:08:58.199Z,18.37
2023-08-17T03:11:30.279Z,18.43
2023-08-17T03:14:01.321Z,18.56
2023-08-17T03:17:04.200Z,18.20
2023-08-17T03:20:11.548Z,18.47
2023-08-17T03:23:03.265Z,18.22
2023-08-17T03:28:13.929Z,18.31
2023-08-17T03:30:42.949Z,18.27
2023-08-17T03:33:14.761Z,18.36
2023-08-17T03:35:43.119Z,18.39
2023-08-17T03:38:09.582Z,18.60
2023-08-17T03:40:38.204Z,18.43
2023-08-17T03:43:04.834Z,18.55
2023-08-17T03:45:32.061Z,18.39
2023-08-17T03:47:58.484Z,18.46
2023-08-17T03:50:27.941Z,18.39
2023-08-17T03:52:54.567Z,18.55
2023-08-17T03:55:21.005Z,18.34
2023-08-17T03:57:47.560Z,18.55
2023-08-17T04:00:16.661Z,18.39
2023-08-17T04:02:45.841Z,18.47
2023-08-17T04:05:12.306Z,18.02
2023-08-17T04:07:45.065Z,18.01
2023-08-17T04:10:11.744Z,18.20
2023-08-17T04:12:38.148Z,18.06
2023-08-17T04:15:07.100Z,18.31
2023-08-17T04:17:37.803Z,17.95
2023-08-17T04:20:05.832Z,18.20
2023-08-17T04:22:32.296Z,17.91
2023-08-17T04:25:10.680Z,18.28
2023-08-17T04:27:37.213Z,18.21
2023-08-17T04:30:04.012Z,18.01
2023-08-17T04:32:32.907Z,17.98
2023-08-17T04:34:59.338Z,18.21
2023-08-17T04:37:30.760Z,18.06
2023-08-17T04:40:00.963Z,18.08
2023-08-17T04:42:28.276Z,17.75
2023-08-17T04:44:54.685Z,17.94
2023-08-17T04:47:21.082Z,17.96
2023-08-17T04:49:47.562Z,18.29
2023-08-17T04:52:16.472Z,18.26
2023-08-17T04:54:42.919Z,18.17
2023-08-17T04:57:09.359Z,18.19
2023-08-17T04:59:36.010Z,18.20
2023-08-17T05:02:02.623Z,18.29
2023-08-17T05:04:33.425Z,18.30
2023-08-17T05:06:59.855Z,18.25
2023-08-17T05:09:27.548Z,18.43
2023-08-17T05:11:54.204Z,18.38
2023-08-17T05:14:20.681Z,18.36
2023-08-17T05:16:47.178Z,18.31
2023-08-17T05:19:13.572Z,18.37
2023-08-17T05:21:39.998Z,18.43
2023-08-17T05:24:06.740Z,18.36
2023-08-17T05:26:33.197Z,18.35
2023-08-17T05:28:59.564Z,18.21
2023-08-17T05:31:26.003Z,18.63
2023-08-17T05:33:52.705Z,18.49
2023-08-17T05:36:19.162Z,18.50
2023-08-17T05:38:45.603Z,18.43
2023-08-17T05:41:12.031Z,18.32
2023-08-17T05:43:38.519Z,18.65
2023-08-17T05:46:10.640Z,18.69
2023-08-17T05:48:37.067Z,18.51
2023-08-17T05:51:03.620Z,18.66
2023-08-17T05:53:30.053Z,18.66
2023-08-17T05:55:56.485Z,18.57
2023-08-17T05:58:25.443Z,18.42
2023-08-17T06:00:52.406Z,18.60
2023-08-17T06:03:18.986Z,18.58
2023-08-17T06:05:45.640Z,18.82
2023-08-17T06:08:14.608Z,18.80
2023-08-17T06:10:41.058Z,18.72
2023-08-17T06:13:07.492Z,19.01
2023-08-17T06:15:33.924Z,18.94
2023-08-17T06:18:00.462Z,18.95
2023-08-17T06:20:31.981Z,19.18
2023-08-17T06:22:59.431Z,19.07
2023-08-17T06:25:27.329Z,19.23
2023-08-17T06:27:53.895Z,19.41
2023-08-17T06:30:20.369Z,19.36
2023-08-17T06:32:56.100Z,19.49
2023-08-17T06:36:07.969Z,19.08
2023-08-17T06:38:34.527Z,19.47
2023-08-17T06:41:00.949Z,19.35
2023-08-17T06:43:27.452Z,19.28
2023-08-17T06:46:21.954Z,19.69
2023-08-17T06:48:48.478Z,19.46
2023-08-17T06:51:18.333Z,19.71
2023-08-17T06:54:17.326Z,19.75
2023-08-17T06:56:43.703Z,19.79
2023-08-17T07:03:13.394Z,20.19
2023-08-17T07:05:43.345Z,20.09
2023-08-17T07:08:12.043Z,20.32
2023-08-17T07:10:38.607Z,20.09
2023-08-17T07:13:08.290Z,20.31
2023-08-17T07:15:35.038Z,20.19
2023-08-17T07:18:01.596Z,20.46
2023-08-17T07:20:28.292Z,20.37
2023-08-17T07:22:54.801Z,20.65
2023-08-17T07:25:21.269Z,20.51
2023-08-17T07:27:47.721Z,20.61
2023-08-17T07:30:14.380Z,20.61
2023-08-17T07:32:40.941Z,20.31
2023-08-17T07:35:08.076Z,20.51
2023-08-17T07:37:35.157Z,20.71
2023-08-17T07:40:46.712Z,20.23
2023-08-17T07:43:13.253Z,20.47
2023-08-17T07:45:39.653Z,20.54
2023-08-17T07:48:06.520Z,20.69
2023-08-17T07:50:32.960Z,20.71
2023-08-17T07:52:59.372Z,20.64
2023-08-17T07:55:27.472Z,20.58
2023-08-17T07:57:54.141Z,20.79
2023-08-17T08:00:20.929Z,20.54
2023-08-17T08:02:47.699Z,20.66
2023-08-17T08:05:15.315Z,20.73
2023-08-17T08:07:42.041Z,20.93
2023-08-17T08:10:09.381Z,20.85
2023-08-17T08:12:38.596Z,21.06
2023-08-17T08:15:05.317Z,20.80
2023-08-17T08:17:32.756Z,20.83
2023-08-17T08:20:08.798Z,20.79
2023-08-17T08:22:35.435Z,20.52
2023-08-17T08:25:09.627Z,20.58
2023-08-17T08:27:36.057Z,20.76
2023-08-17T08:30:02.474Z,20.79
2023-08-17T08:32:30.811Z,21.11
2023-08-17T08:34:57.389Z,21.18
2023-08-17T08:37:23.783Z,21.12
2023-08-17T08:39:58.633Z,21.23
2023-08-17T08:42:25.882Z,21.31
2023-08-17T08:44:52.463Z,21.59
2023-08-17T08:47:19.530Z,21.58
2023-08-17T08:50:04.694Z,21.71
2023-08-17T08:52:34.868Z,21.72
2023-08-17T08:55:09.590Z,21.73
2023-08-17T08:57:37.272Z,21.61
2023-08-17T09:00:04.916Z,21.54
2023-08-17T09:02:31.434Z,21.53
2023-08-17T09:04:58.691Z,21.58
2023-08-17T09:07:26.648Z,21.58
2023-08-17T09:09:53.625Z,21.60
2023-08-17T09:12:30.102Z,21.58
2023-08-17T09:15:06.101Z,21.43
2023-08-17T09:17:35.371Z,21.35
2023-08-17T09:20:02.078Z,21.67
2023-08-17T09:22:40.206Z,21.69
2023-08-17T09:25:07.698Z,21.72
2023-08-17T09:27:34.306Z,21.74
2023-08-17T09:30:09.762Z,21.80
2023-08-17T09:32:36.601Z,21.70
2023-08-17T09:35:05.420Z,21.82
2023-08-17T09:37:32.565Z,21.88
2023-08-17T09:39:59.463Z,22.02
2023-08-17T09:42:28.502Z,21.86
2023-08-17T09:44:56.635Z,22.05
2023-08-17T09:47:23.985Z,21.97
2023-08-17T09:50:20.573Z,21.79
2023-08-17T09:52:51.218Z,21.79
2023-08-17T09:55:20.014Z,21.79
2023-08-17T09:57:50.383Z,21.74
2023-08-17T10:00:17.883Z,21.56
2023-08-17T10:05:40.567Z,21.85
2023-08-17T10:08:07.993Z,22.19
2023-08-17T10:10:37.387Z,22.05
2023-08-17T10:13:52.031Z,22.30
2023-08-17T10:16:30.889Z,22.34
2023-08-17T10:19:38.309Z,22.44
2023-08-17T10:22:19.320Z,22.36
2023-08-17T10:24:50.320Z,22.43
2023-08-17T10:27:17.877Z,22.60
2023-08-17T10:29:46.864Z,22.56
2023-08-17T10:32:16.625Z,22.47
2023-08-17T10:34:44.565Z,22.69
2023-08-17T10:37:12.488Z,23.16
2023-08-17T10:39:46.368Z,23.69
2023-08-17T10:42:13.915Z,24.05
2023-08-17T10:44:46.408Z,24.23
2023-08-17T10:47:36.343Z,24.30
2023-08-17T10:50:20.928Z,24.27
2023-08-17T10:52:49.676Z,24.42
2023-08-17T10:55:20.911Z,24.38
2023-08-17T10:57:48.334Z,24.49
2023-08-17T11:27:14.933Z,27.41
2023-08-17T11:30:53.317Z,27.42
2023-08-17T11:33:19.742Z,27.25
2023-08-17T11:35:46.903Z,27.53
2023-08-17T11:38:13.309Z,27.45
2023-08-17T11:40:39.740Z,27.43
2023-08-17T11:43:06.233Z,27.46
2023-08-17T11:45:33.292Z,27.65
2023-08-17T11:47:59.840Z,27.80
2023-08-17T11:50:28.962Z,27.97
2023-08-17T11:52:58.072Z,28.25
2023-08-17T11:55:25.316Z,28.51
2023-08-17T11:57:51.666Z,28.47
2023-08-17T12:00:21.211Z,28.67
2023-08-17T12:02:49.176Z,28.86
2023-08-17T12:05:20.956Z,28.99
2023-08-17T12:07:47.500Z,29.03
2023-08-17T12:10:13.978Z,28.98
2023-08-17T12:12:41.261Z,28.85
2023-08-17T12:15:08.035Z,28.87
2023-08-17T12:17:34.444Z,28.88
2023-08-17T12:20:01.119Z,28.76
2023-08-17T12:22:28.394Z,28.70
2023-08-17T12:24:55.112Z,28.77
2023-08-17T12:27:24.001Z,28.98
2023-08-17T12:29:51.356Z,29.43
2023-08-17T12:32:20.920Z,29.66
2023-08-17T12:34:47.676Z,29.64
2023-08-17T12:37:21.114Z,29.68
2023-08-17T12:39:48.704Z,29.77
2023-08-17T12:42:15.445Z,29.94
2023-08-17T12:44:42.410Z,30.15
2023-08-17T12:47:08.810Z,30.10
2023-08-17T12:49:39.535Z,29.66
2023-08-17T12:52:06.353Z,29.40
2023-08-17T12:54:32.775Z,29.20
2023-08-17T12:57:00.152Z,28.91
2023-08-17T12:59:27.625Z,28.90
2023-08-17T13:01:54.062Z,28.82
2023-08-17T13:04:20.439Z,28.90
2023-08-17T13:06:50.064Z,28.91
2023-08-17T13:09:17.010Z,28.96
2023-08-17T13:11:43.565Z,28.99
2023-08-17T13:14:09.994Z,28.92
2023-08-17T13:16:36.427Z,28.65
2023-08-17T13:19:02.919Z,28.24
2023-08-17T13:21:29.593Z,28.14
2023-08-17T13:23:56.266Z,28.02
2023-08-17T13:26:25.900Z,27.72
2023-08-17T13:28:52.298Z,27.60
2023-08-17T13:31:24.402Z,27.69
2023-08-17T13:33:51.856Z,27.60
2023-08-17T13:36:18.927Z,27.42
2023-08-17T13:38:46.464Z,27.46
2023-08-17T13:41:13.464Z,27.52
2023-08-17T13:43:39.911Z,27.49
2023-08-17T13:46:06.558Z,27.52
2023-08-17T13:48:32.986Z,27.64
2023-08-17T13:50:59.363Z,27.80
2023-08-17T13:53:25.789Z,28.06
2023-08-17T13:55:52.140Z,28.16
2023-08-17T13:58:18.511Z,28.28
2023-08-17T14:00:44.911Z,28.29
2023-08-17T14:03:11.436Z,28.25
2023-08-17T14:05:37.866Z,28.30
2023-08-17T14:08:05.319Z,28.20
2023-08-17T14:10:39.249Z,28.26
2023-08-17T14:13:06.457Z,28.25
2023-08-17T14:15:32.955Z,28.22
2023-08-17T14:17:59.475Z,28.27
2023-08-17T14:20:26.012Z,28.38
2023-08-17T14:22:52.365Z,28.43
2023-08-17T14:25:18.834Z,28.60
2023-08-17T14:27:45.216Z,28.72
2023-08-17T14:30:13.980Z,28.81
2023-08-17T14:32:40.446Z,28.77
2023-08-17T14:35:12.344Z,28.58
2023-08-17T14:37:39.540Z,28.60
2023-08-17T14:40:06.592Z,28.63
2023-08-17T14:42:33.012Z,28.55
2023-08-17T14:44:59.431Z,28.72
2023-08-17T14:47:26.179Z,28.73
2023-08-17T14:49:54.427Z,28.76
2023-08-17T14:52:20.926Z,28.84
2023-08-17T14:54:47.274Z,29.08
2023-08-17T14:57:13.613Z,29.21
2023-08-17T14:59:40.015Z,29.36
2023-08-17T15:02:06.412Z,29.46
2023-08-17T15:04:33.689Z,29.53
2023-08-17T15:07:00.099Z,29.55
2023-08-17T15:09:26.484Z,29.64
2023-08-17T15:11:52.937Z,29.69
2023-08-17T15:14:19.378Z,29.62
2023-08-17T15:16:45.823Z,29.62
2023-08-17T15:19:14.015Z,29.55
2023-08-17T15:21:40.584Z,29.45
2023-08-17T15:24:06.994Z,29.41
2023-08-17T15:26:34.042Z,29.41
2023-08-17T15:29:00.704Z,29.32
2023-08-17T15:31:27.223Z,29.25
2023-08-17T15:33:53.684Z,29.10
2023-08-17T15:36:23.006Z,28.96
2023-08-17T15:38:49.510Z,28.93
2023-08-17T15:41:15.912Z,28.90
2023-08-17T15:43:42.523Z,28.83
2023-08-17T15:46:10.505Z,28.95
2023-08-17T15:48:38.586Z,28.84
2023-08-17T15:51:05.012Z,28.71
2023-08-17T15:53:31.582Z,28.72
2023-08-17T15:55:58.037Z,28.72
2023-08-17T15:58:24.694Z,28.75
2023-08-17T16:00:51.037Z,28.79
2023-08-17T16:03:17.509Z,28.83
2023-08-17T16:05:45.416Z,28.81
2023-08-17T16:10:46.717Z,28.78
2023-08-17T16:13:13.047Z,28.91
2023-08-17T16:15:39.429Z,28.95
2023-08-17T16:18:05.821Z,28.92
2023-08-17T16:20:34.552Z,28.91
2023-08-17T16:23:01.712Z,28.97
2023-08-17T16:25:30.645Z,29.02
2023-08-17T16:27:57.118Z,29.12
2023-08-17T16:30:24.033Z,29.17
2023-08-17T16:32:50.402Z,29.18
2023-08-17T16:35:16.961Z,29.19
2023-08-17T16:37:43.275Z,29.24
2023-08-17T16:40:17.589Z,29.26
2023-08-17T16:42:50.442Z,29.25
2023-08-17T16:45:17.353Z,29.19
2023-08-17T16:47:43.735Z,29.14
2023-08-17T16:50:10.523Z,29.19
2023-08-17T16:52:39.684Z,29.25
2023-08-17T16:55:06.654Z,29.16
2023-08-17T16:57:33.954Z,29.00
2023-08-17T17:00:04.380Z,28.86
2023-08-17T17:02:31.197Z,28.77
2023-08-17T17:04:57.567Z,28.74
2023-08-17T17:07:23.940Z,28.64
2023-08-17T17:09:50.344Z,28.49
2023-08-17T17:12:16.688Z,28.39
2023-08-17T17:14:43.078Z,28.35
2023-08-17T17:17:09.473Z,28.26
2023-08-17T17:19:35.933Z,28.12
2023-08-17T17:22:02.376Z,27.93
2023-08-17T17:24:28.700Z,27.78
2023-08-17T17:26:55.061Z,27.65
2023-08-17T17:29:21.418Z,27.44
2023-08-17T17:31:47.789Z,27.27
2023-08-17T17:34:14.120Z,27.10
2023-08-17T17:36:40.513Z,26.96
2023-08-17T17:39:06.931Z,26.86
2023-08-17T17:41:33.315Z,26.77
2023-08-17T17:43:59.679Z,26.69
2023-08-17T17:46:26.165Z,26.62
2023-08-17T17:48:53.960Z,26.54
2023-08-17T17:51:22.045Z,26.49
2023-08-17T17:53:48.368Z,26.44
2023-08-17T17:56:14.721Z,26.41
2023-08-17T17:58:41.151Z,26.36
2023-08-17T18:01:07.666Z,26.29
2023-08-17T18:03:34.026Z,26.23
2023-08-17T18:06:00.653Z,26.15
2023-08-17T18:08:27.044Z,26.05
2023-08-17T18:10:53.415Z,25.99
2023-08-17T18:13:19.745Z,25.89
2023-08-17T18:15:46.079Z,25.82
2023-08-17T18:18:12.436Z,25.74
2023-08-17T18:20:38.819Z,25.69
2023-08-17T18:23:05.646Z,25.65
2023-08-17T18:25:32.963Z,25.57
2023-08-17T18:27:59.896Z,25.50
2023-08-17T18:30:26.292Z,25.39
2023-08-17T18:32:52.672Z,25.31
2023-08-17T18:35:21.554Z,25.23
2023-08-17T18:37:48.429Z,25.14
2023-08-17T18:40:14.797Z,25.07
2023-08-17T18:42:41.203Z,24.95
2023-08-17T18:45:08.188Z,24.89
2023-08-17T18:47:34.579Z,24.80
2023-08-17T18:50:00.949Z,24.77
2023-08-17T18:52:28.203Z,24.72
2023-08-17T18:55:00.186Z,24.62
2023-08-17T18:57:27.062Z,24.57
2023-08-17T18:59:53.646Z,24.47
2023-08-17T19:02:20.069Z,24.38
2023-08-17T19:04:47.306Z,24.30
2023-08-17T19:07:15.052Z,24.18
2023-08-17T19:09:41.863Z,24.13
2023-08-17T19:12:08.354Z,24.05
2023-08-17T19:14:34.743Z,23.95
2023-08-17T19:17:01.242Z,23.88
2023-08-17T19:19:27.755Z,23.81
2023-08-17T19:21:54.214Z,23.79
2023-08-17T19:24:20.581Z,23.76
2023-08-17T19:26:46.942Z,23.69
2023-08-17T19:29:13.331Z,23.64
2023-08-17T19:31:39.743Z,23.58
2023-08-17T19:34:07.700Z,23.55
2023-08-17T19:36:34.923Z,23.52
2023-08-17T19:39:01.277Z,23.49
2023-08-17T19:41:27.618Z,23.44
2023-08-17T19:43:53.955Z,23.41
2023-08-17T19:46:20.454Z,23.38
2023-08-17T19:48:46.931Z,23.36
2023-08-17T19:51:13.314Z,23.35
2023-08-17T19:56:09.963Z,23.29
2023-08-17T19:58:37.461Z,23.26
2023-08-17T20:01:08.410Z,23.19
2023-08-17T20:03:35.732Z,23.15
2023-08-17T20:06:03.170Z,23.09
2023-08-17T20:08:30.351Z,23.07
2023-08-17T20:10:56.881Z,23.06
2023-08-17T20:13:23.249Z,23.04
2023-08-17T20:15:56.280Z,23.03
2023-08-17T20:18:22.988Z,22.98
2023-08-17T20:20:52.193Z,22.95
2023-08-17T20:23:20.104Z,22.94
2023-08-17T20:25:49.256Z,22.91
2023-08-17T20:28:16.488Z,22.89
2023-08-17T20:30:45.668Z,22.86
2023-08-17T20:33:12.555Z,22.84
2023-08-17T20:35:40.994Z,22.84
2023-08-17T20:38:08.556Z,22.82
2023-08-17T20:40:35.915Z,22.79
2023-08-17T20:43:02.237Z,22.75
2023-08-17T20:45:28.578Z,22.73
2023-08-17T20:47:54.929Z,22.71
2023-08-17T20:50:21.412Z,22.67
2023-08-17T20:52:47.898Z,22.67
2023-08-17T20:55:14.241Z,22.61
2023-08-17T20:57:40.672Z,22.60
2023-08-17T21:00:08.513Z,22.59
2023-08-17T21:02:35.354Z,22.56
2023-08-17T21:05:01.828Z,22.50
2023-08-17T21:07:30.638Z,22.48
2023-08-17T21:10:06.666Z,22.43
2023-08-17T21:12:33.028Z,22.40
2023-08-17T21:14:59.523Z,22.38
2023-08-17T21:17:27.853Z,22.35
2023-08-17T21:19:54.622Z,22.33
2023-08-17T21:22:21.016Z,22.30
2023-08-17T21:24:47.376Z,22.27
2023-08-17T21:27:13.728Z,22.26
2023-08-17T21:29:40.104Z,22.24
2023-08-17T21:32:06.852Z,22.19
2023-08-17T21:34:33.185Z,22.16
2023-08-17T21:36:59.561Z,22.12
2023-08-17T21:39:25.939Z,22.09
2023-08-17T21:41:52.266Z,22.05
2023-08-17T21:44:18.639Z,22.04
2023-08-17T21:46:45.022Z,22.02
2023-08-17T21:49:11.380Z,21.98
2023-08-17T21:51:37.714Z,21.95
2023-08-17T21:54:04.508Z,21.94
2023-08-17T21:56:30.910Z,21.93
2023-08-17T21:58:57.236Z,21.91
2023-08-17T22:01:23.604Z,21.86
2023-08-17T22:03:50.029Z,21.83
2023-08-17T22:06:16.537Z,21.79
2023-08-17T22:08:42.891Z,21.77
2023-08-17T22:11:09.272Z,21.73
2023-08-17T22:13:35.773Z,21.74
2023-08-17T22:16:02.173Z,21.74
2023-08-17T22:18:28.529Z,21.71
2023-08-17T22:20:54.907Z,21.70
2023-08-17T22:23:21.281Z,21.71
2023-08-17T22:25:48.357Z,21.71
2023-08-17T22:28:14.737Z,21.68
2023-08-17T22:30:41.146Z,21.70
2023-08-17T22:33:07.651Z,21.68
2023-08-17T22:35:34.153Z,21.67
2023-08-17T22:38:00.540Z,21.67
2023-08-17T22:40:26.938Z,21.68
2023-08-17T22:42:53.247Z,21.67
2023-08-17T22:45:19.554Z,21.69
2023-08-17T22:47:45.936Z,21.69
2023-08-17T22:50:12.277Z,21.70
2023-08-17T22:52:39.467Z,21.71
2023-08-17T22:55:05.973Z,21.65
2023-08-17T22:57:32.314Z,21.65
2023-08-17T22:59:58.640Z,21.62
2023-08-17T23:02:25.031Z,21.58
2023-08-17T23:04:51.408Z,21.57
2023-08-17T23:07:17.776Z,21.56
2023-08-17T23:09:44.287Z,21.58
2023-08-17T23:12:10.687Z,21.58
2023-08-17T23:14:37.080Z,21.59
2023-08-17T23:17:03.436Z,21.58
2023-08-17T23:19:29.837Z,21.55
2023-08-17T23:21:56.169Z,21.59
2023-08-17T23:24:22.610Z,21.62
2023-08-17T23:26:49.038Z,21.63
2023-08-17T23:29:15.400Z,21.60
2023-08-17T23:31:41.774Z,21.56
2023-08-17T23:34:08.343Z,21.57
2023-08-17T23:36:35.207Z,21.56
2023-08-17T23:39:01.640Z,21.56
2023-08-17T23:41:28.571Z,21.56
2023-08-17T23:43:54.938Z,21.51
2023-08-17T23:46:21.291Z,21.57
2023-08-17T23:48:47.710Z,21.54
2023-08-17T23:51:14.087Z,21.56
2023-08-17T23:53:40.414Z,21.52
2023-08-17T23:56:06.730Z,21.50
2023-08-17T23:58:33.063Z,21.46
